Time;durP1;ratioP1;P1;durP2;ratioP2;P2;SDS_P1;SDS_P2;PMS_P1;PMS_P2;Temp;Humidity;BMP_temperature;BMP_pressure;BME280_temperature;BME280_humidity;BME280_pressure;Samples;Min_cycle;Max_cycle;Signal;HPM_P1;HPM_P2
2021/12/08 00:02:09;;;;;;;16.02;7.40;;;;;;;3.24;97.20;99138.88;5052730;28;20025;-59
2021/12/08 00:04:34;;;;;;;15.93;7.22;;;;;;;3.21;97.92;99142.22;5051943;28;20451;-59
2021/12/08 00:07:00;;;;;;;16.20;7.22;;;;;;;3.26;98.02;99131.22;5052553;28;20033;-60
2021/12/08 00:09:45;;;;;;;16.85;7.80;;;;;;;3.30;97.51;99125.94;5052987;28;20432;-60
2021/12/08 00:14:55;;;;;;;15.43;7.00;;;;;;;3.34;97.75;99128.91;5052273;28;20439;-60
2021/12/08 00:17:20;;;;;;;19.00;7.50;;;;;;;3.41;97.86;99121.09;5052557;28;20032;-60
2021/12/08 00:19:45;;;;;;;16.92;7.03;;;;;;;3.42;97.59;99107.16;5052372;28;20032;-60
2021/12/08 00:22:11;;;;;;;16.33;7.45;;;;;;;3.43;97.58;99105.22;5052787;28;20029;-59
2021/12/08 00:24:36;;;;;;;15.65;7.03;;;;;;;3.41;97.85;99115.63;5052306;28;20021;-59
2021/12/08 00:27:02;;;;;;;17.73;8.40;;;;;;;3.43;98.17;99102.50;5052284;28;20059;-59
2021/12/08 00:29:27;;;;;;;17.83;7.47;;;;;;;3.46;98.41;99110.09;5052469;28;20380;-59
2021/12/08 00:31:52;;;;;;;16.23;7.40;;;;;;;3.50;98.68;99113.03;5052400;28;20024;-59
2021/12/08 00:34:18;;;;;;;17.33;7.43;;;;;;;3.52;98.78;99125.28;5052409;28;20499;-59
2021/12/08 00:36:47;;;;;;;16.48;7.25;;;;;;;3.53;98.74;99117.91;5052549;28;20040;-61
2021/12/08 00:39:13;;;;;;;16.55;7.50;;;;;;;3.51;99.40;99129.13;5051635;28;20031;-58
2021/12/08 00:41:39;;;;;;;16.10;6.80;;;;;;;3.52;99.44;99135.44;5051977;28;20120;-58
2021/12/08 00:44:05;;;;;;;18.92;8.85;;;;;;;3.51;99.70;99131.88;5051386;28;20510;-59
2021/12/08 00:46:31;;;;;;;18.83;8.20;;;;;;;3.59;99.43;99117.50;5051518;28;20036;-59
2021/12/08 00:48:56;;;;;;;15.55;7.20;;;;;;;3.63;99.30;99101.31;5051634;28;20112;-59
2021/12/08 00:51:22;;;;;;;14.55;7.03;;;;;;;3.64;99.26;99104.84;5052062;28;20082;-59
2021/12/08 00:53:48;;;;;;;17.38;7.32;;;;;;;3.66;99.65;99108.91;5052347;28;20117;-59
2021/12/08 00:56:13;;;;;;;17.95;7.68;;;;;;;3.64;99.62;99113.84;5050296;28;20028;-59
2021/12/08 00:58:39;;;;;;;15.88;7.80;;;;;;;3.65;99.91;99115.47;5051291;28;20126;-59
2021/12/08 01:01:08;;;;;;;18.77;7.80;;;;;;;3.55;100.00;99105.56;5051136;28;20025;-59
2021/12/08 01:03:35;;;;;;;21.45;9.60;;;;;;;3.68;100.00;99122.28;5051523;28;20104;-60
2021/12/08 01:06:01;;;;;;;16.48;7.20;;;;;;;3.70;100.00;99125.50;5051667;28;20029;-59
2021/12/08 01:08:28;;;;;;;17.55;7.38;;;;;;;3.71;100.00;99143.53;5052263;28;20028;-60
2021/12/08 01:10:59;;;;;;;17.48;7.88;;;;;;;3.72;100.00;99137.78;5054994;28;20021;-60
2021/12/08 01:13:25;;;;;;;15.68;7.60;;;;;;;3.80;100.00;99136.25;5055642;28;20052;-60
2021/12/08 01:15:54;;;;;;;14.18;6.80;;;;;;;3.81;100.00;99135.16;5055572;28;20446;-60
2021/12/08 01:18:20;;;;;;;16.00;7.32;;;;;;;3.99;100.00;99138.91;5055181;28;20040;-60
2021/12/08 01:20:47;;;;;;;15.40;7.20;;;;;;;4.07;100.00;99148.31;5055566;28;20121;-59
2021/12/08 01:23:13;;;;;;;15.05;6.53;;;;;;;4.17;100.00;99144.56;5055102;28;20103;-60
2021/12/08 01:25:39;;;;;;;16.70;7.00;;;;;;;4.23;100.00;99148.81;5055184;28;20033;-60
2021/12/08 01:28:04;;;;;;;12.07;6.55;;;;;;;4.29;100.00;99153.09;5055193;28;20107;-60
2021/12/08 01:30:30;;;;;;;13.88;6.78;;;;;;;4.31;100.00;99152.78;5055047;28;20413;-59
2021/12/08 01:32:56;;;;;;;14.02;6.05;;;;;;;4.36;100.00;99161.69;5055216;28;20524;-59
2021/12/08 01:35:23;;;;;;;14.82;6.70;;;;;;;4.40;100.00;99159.16;5055052;28;20033;-60
2021/12/08 01:37:48;;;;;;;14.05;7.00;;;;;;;4.41;100.00;99152.56;5053583;28;20433;-60
2021/12/08 01:40:15;;;;;;;14.25;6.43;;;;;;;4.46;100.00;99155.19;5053508;28;20036;-60
2021/12/08 01:42:45;;;;;;;13.25;6.20;;;;;;;4.53;100.00;99163.78;5054550;28;20055;-60
2021/12/08 01:48:02;;;;;;;14.77;6.60;;;;;;;4.59;100.00;99166.44;5055593;28;20503;-60
2021/12/08 01:50:27;;;;;;;16.40;5.90;;;;;;;4.59;100.00;99169.16;5054928;28;20025;-59
2021/12/08 01:52:52;;;;;;;15.15;6.90;;;;;;;4.59;100.00;99174.66;5055207;28;20468;-60
2021/12/08 01:55:18;;;;;;;10.20;5.78;;;;;;;4.62;100.00;99185.00;5054604;28;20104;-59
2021/12/08 01:57:44;;;;;;;13.45;6.13;;;;;;;4.62;100.00;99176.78;5054370;28;20503;-57
2021/12/08 02:00:14;;;;;;;11.73;5.93;;;;;;;4.64;100.00;99180.00;5054554;28;20108;-61
2021/12/08 02:02:40;;;;;;;14.57;5.82;;;;;;;4.64;100.00;99177.25;5054051;28;20029;-60
2021/12/08 02:05:06;;;;;;;13.88;6.35;;;;;;;4.61;100.00;99186.09;5054303;28;20091;-61
2021/12/08 02:07:31;;;;;;;12.40;5.63;;;;;;;4.61;100.00;99173.22;5054736;28;20177;-60
2021/12/08 02:09:56;;;;;;;12.77;6.05;;;;;;;4.61;100.00;99175.16;5054328;28;20464;-58
2021/12/08 02:12:22;;;;;;;13.48;5.55;;;;;;;4.65;100.00;99181.63;5054298;28;20029;-60
2021/12/08 02:14:47;;;;;;;15.60;6.00;;;;;;;4.67;100.00;99193.09;5054530;28;20104;-60
2021/12/08 02:17:13;;;;;;;15.50;6.07;;;;;;;4.66;100.00;99189.56;5053966;28;20448;-59
2021/12/08 02:19:39;;;;;;;11.52;6.60;;;;;;;4.74;100.00;99195.41;5054244;28;20444;-59
2021/12/08 02:22:04;;;;;;;11.48;5.80;;;;;;;4.75;100.00;99192.34;5053494;28;20037;-60
2021/12/08 02:24:30;;;;;;;13.48;6.28;;;;;;;4.76;100.00;99196.72;5053150;28;20094;-60
2021/12/08 02:26:57;;;;;;;12.35;6.15;;;;;;;4.83;100.00;99199.84;5053760;28;20029;-59
2021/12/08 02:29:39;;;;;;;13.07;5.80;;;;;;;4.81;99.79;99204.03;5053931;28;20017;-59
2021/12/08 02:32:12;;;;;;;12.25;5.72;;;;;;;4.85;99.35;99218.75;5054384;28;20117;-60
2021/12/08 02:48:18;;;;;;;15.15;6.38;;;;;;;4.88;97.34;99218.09;5053883;28;20409;-59
2021/12/08 02:50:43;;;;;;;14.95;5.75;;;;;;;4.87;97.45;99227.44;5053886;28;20033;-60
2021/12/08 02:53:11;;;;;;;14.45;6.00;;;;;;;4.86;96.99;99231.31;5053863;28;20036;-59
2021/12/08 02:55:38;;;;;;;14.75;5.88;;;;;;;4.82;97.06;99235.78;5053441;28;20475;-60
2021/12/08 02:58:04;;;;;;;13.73;6.40;;;;;;;4.79;97.00;99236.38;5051674;28;20542;-60
2021/12/08 03:00:39;;;;;;;12.15;5.88;;;;;;;4.76;97.17;99239.75;5053490;28;20029;-61
2021/12/08 03:03:05;;;;;;;17.55;6.28;;;;;;;4.79;97.26;99234.47;5053690;28;20511;-60
2021/12/08 03:05:31;;;;;;;14.50;6.15;;;;;;;4.78;97.34;99232.03;5053686;28;20175;-60
2021/12/08 03:07:58;;;;;;;13.80;5.80;;;;;;;4.78;97.35;99241.06;5053042;28;20507;-60
2021/12/08 03:10:28;;;;;;;13.25;6.10;;;;;;;4.69;97.25;99213.56;5052544;28;20029;-60
2021/12/08 03:12:54;;;;;;;17.45;6.20;;;;;;;4.78;97.00;99232.03;5052308;28;20491;-57
2021/12/08 03:15:19;;;;;;;16.35;6.20;;;;;;;4.80;97.06;99235.28;5052391;28;20036;-60
2021/12/08 03:17:45;;;;;;;16.10;6.75;;;;;;;4.79;96.76;99236.38;5052345;28;20383;-60
2021/12/08 03:20:15;;;;;;;13.73;6.40;;;;;;;4.73;97.30;99221.97;5052157;28;20025;-59
2021/12/08 03:22:46;;;;;;;18.23;6.10;;;;;;;4.78;97.34;99237.50;5052852;28;20028;-60
2021/12/08 03:25:16;;;;;;;18.30;6.97;;;;;;;4.73;97.49;99221.19;5052870;28;20029;-59
2021/12/08 03:27:49;;;;;;;16.33;6.55;;;;;;;4.79;97.53;99250.09;5052845;28;20369;-60
2021/12/08 03:30:26;;;;;;;14.13;5.88;;;;;;;4.79;97.00;99253.66;5051026;28;20041;-59
2021/12/08 03:32:56;;;;;;;16.40;5.70;;;;;;;4.83;97.48;99257.38;5052654;28;20465;-60
2021/12/08 03:35:21;;;;;;;14.20;5.72;;;;;;;4.88;96.46;99252.94;5052945;28;20128;-60
2021/12/08 03:37:47;;;;;;;16.63;6.53;;;;;;;4.91;95.52;99261.34;5052716;28;20029;-60
2021/12/08 03:40:22;;;;;;;11.45;5.80;;;;;;;4.98;95.30;99263.66;5052823;28;20456;-60
2021/12/08 03:42:50;;;;;;;14.05;6.47;;;;;;;4.94;95.08;99251.69;5053242;28;20044;-60
2021/12/08 03:45:33;;;;;;;14.93;6.10;;;;;;;4.95;94.51;99251.41;5052525;28;20052;-60
2021/12/08 03:48:04;;;;;;;13.80;5.97;;;;;;;4.93;92.86;99247.31;5052875;28;20029;-60
2021/12/08 03:50:33;;;;;;;13.10;6.38;;;;;;;4.83;92.35;99248.38;5052698;28;20029;-59
2021/12/08 03:52:58;;;;;;;13.68;6.10;;;;;;;4.86;92.03;99253.25;5052992;28;20100;-60
2021/12/08 03:55:24;;;;;;;14.55;6.15;;;;;;;4.75;92.81;99260.06;5052334;28;20116;-60
2021/12/08 03:57:50;;;;;;;14.05;6.40;;;;;;;4.69;92.89;99268.34;5052235;28;20025;-60
2021/12/08 04:00:19;;;;;;;13.75;6.18;;;;;;;4.66;92.70;99270.91;5052546;28;20032;-59
2021/12/08 04:02:46;;;;;;;15.45;6.50;;;;;;;4.63;93.20;99275.06;5052101;28;20029;-60
2021/12/08 04:05:18;;;;;;;16.15;5.97;;;;;;;4.46;92.82;99253.75;5052252;28;20064;-60
2021/12/08 04:07:45;;;;;;;14.88;6.03;;;;;;;4.50;92.61;99267.66;5053272;28;20090;-60
2021/12/08 04:10:17;;;;;;;15.00;6.20;;;;;;;4.48;92.94;99267.97;5052600;28;20024;-59
2021/12/08 04:12:43;;;;;;;12.85;6.30;;;;;;;4.42;92.68;99274.66;5052466;28;20029;-59
2021/12/08 04:15:09;;;;;;;16.27;6.10;;;;;;;4.35;92.39;99275.06;5052590;28;20090;-59
2021/12/08 04:17:38;;;;;;;13.88;6.40;;;;;;;4.29;92.83;99275.47;5052659;28;20037;-59
2021/12/08 04:20:19;;;;;;;12.70;6.00;;;;;;;4.21;92.57;99275.06;5052162;28;20025;-60
2021/12/08 04:22:50;;;;;;;16.70;6.22;;;;;;;4.12;92.63;99268.66;5052550;28;20028;-61
2021/12/08 04:25:22;;;;;;;15.05;6.22;;;;;;;4.12;92.70;99282.34;5052485;28;20099;-61
2021/12/08 04:27:50;;;;;;;14.95;6.55;;;;;;;4.02;92.68;99275.09;5052588;28;20036;-60
2021/12/08 04:30:24;;;;;;;15.02;6.60;;;;;;;4.03;93.13;99286.88;5052595;28;20025;-59
2021/12/08 04:32:49;;;;;;;;;;;;;;;4.01;92.76;99286.38;5052922;28;20057;-60
2021/12/08 04:35:18;;;;;;;15.82;5.97;;;;;;;3.92;93.16;99294.44;5052406;28;20323;-59
2021/12/08 04:37:48;;;;;;;16.30;5.80;;;;;;;3.81;93.33;99282.06;5052473;28;20029;-59
2021/12/08 04:40:26;;;;;;;15.63;6.28;;;;;;;3.73;93.67;99281.63;5050915;28;20498;-60
2021/12/08 04:43:16;;;;;;;15.30;5.97;;;;;;;3.70;94.10;99287.69;5052258;28;20044;-59
2021/12/08 04:46:08;;;;;;;11.70;6.22;;;;;;;3.69;94.55;99288.81;5055862;28;20040;-60
2021/12/08 04:51:48;;;;;;;14.10;6.00;;;;;;;3.65;94.75;99285.03;5045035;28;20160;-58
2021/12/08 05:00:45;;;;;;;16.48;5.90;;;;;;;3.65;93.95;99276.03;5056015;28;20163;-59
2021/12/08 05:08:23;;;;;;;14.45;6.03;;;;;;;3.62;93.12;99307.53;5055706;28;19913;-59
2021/12/08 05:10:51;;;;;;;16.27;6.07;;;;;;;3.59;92.95;99316.31;5055948;28;20472;-59
2021/12/08 05:13:19;;;;;;;16.55;6.10;;;;;;;3.57;92.95;99305.69;5055450;28;20037;-60
2021/12/08 05:15:49;;;;;;;16.25;6.45;;;;;;;3.56;92.63;99320.47;5055216;28;20032;-60
2021/12/08 05:18:37;;;;;;;17.38;6.38;;;;;;;3.61;92.15;99324.22;5055522;28;20037;-58
2021/12/08 05:21:08;;;;;;;15.65;5.95;;;;;;;3.49;91.80;99317.28;5055077;28;20045;-59
2021/12/08 05:23:38;;;;;;;14.43;5.90;;;;;;;3.57;91.64;99324.00;5055248;28;20037;-60
2021/12/08 05:26:11;;;;;;;15.70;5.70;;;;;;;3.59;91.57;99321.78;5054743;28;20122;-60
2021/12/08 05:28:38;;;;;;;13.27;5.53;;;;;;;3.62;91.21;99321.19;5055081;28;20128;-59
2021/12/08 05:31:14;;;;;;;13.35;5.57;;;;;;;3.73;91.00;99316.38;5054323;28;20487;-59
2021/12/08 05:33:42;;;;;;;14.05;5.97;;;;;;;3.75;90.60;99316.91;5055313;28;20032;-59
2021/12/08 05:36:09;;;;;;;15.48;6.43;;;;;;;3.75;90.88;99316.91;5055279;28;20028;-61
2021/12/08 05:38:36;;;;;;;15.73;5.90;;;;;;;3.76;91.14;99334.94;5055478;28;20029;-60
2021/12/08 05:41:11;;;;;;;13.45;6.25;;;;;;;3.77;90.80;99333.81;5054907;28;20060;-60
2021/12/08 05:43:37;;;;;;;17.83;6.18;;;;;;;3.78;90.61;99338.16;5055105;28;20036;-60
2021/12/08 05:46:04;;;;;;;17.80;6.82;;;;;;;3.78;90.74;99343.63;5054482;28;20029;-59
2021/12/08 05:48:32;;;;;;;16.33;6.00;;;;;;;3.78;90.68;99349.09;5055238;28;20033;-60
2021/12/08 05:51:06;;;;;;;16.20;6.47;;;;;;;3.76;90.49;99343.13;5055420;28;20025;-59
2021/12/08 05:53:34;;;;;;;13.20;6.05;;;;;;;3.75;90.24;99357.94;5055475;28;20138;-60
2021/12/08 05:55:59;;;;;;;15.38;5.93;;;;;;;3.75;90.61;99355.19;5053803;28;20078;-59
2021/12/08 05:58:26;;;;;;;16.30;6.13;;;;;;;3.78;89.97;99345.56;5055294;28;20029;-59
2021/12/08 06:01:04;;;;;;;14.60;5.93;;;;;;;3.81;89.89;99356.72;5055183;28;20041;-60
2021/12/08 06:03:30;;;;;;;19.77;6.00;;;;;;;3.82;89.79;99346.63;5053642;28;20094;-60
2021/12/08 06:05:57;;;;;;;16.50;6.00;;;;;;;3.84;89.92;99349.84;5055400;28;20453;-60
2021/12/08 06:08:24;;;;;;;17.42;6.18;;;;;;;3.83;90.43;99359.97;5054789;28;20025;-61
2021/12/08 06:10:50;;;;;;;17.90;6.28;;;;;;;3.79;90.24;99361.69;5053498;28;20028;-59
2021/12/08 06:13:16;;;;;;;14.95;5.50;;;;;;;3.75;90.25;99369.66;5054587;28;20113;-60
2021/12/08 06:15:44;;;;;;;15.00;5.85;;;;;;;3.67;90.75;99370.34;5054781;28;20037;-60
2021/12/08 06:18:10;;;;;;;17.23;6.32;;;;;;;3.71;90.20;99379.59;5053532;28;20384;-60
2021/12/08 06:20:36;;;;;;;13.98;6.85;;;;;;;3.70;90.06;99379.88;5054930;28;20029;-60
2021/12/08 06:23:04;;;;;;;12.73;6.50;;;;;;;3.65;90.94;99366.28;5054956;28;20119;-60
2021/12/08 06:25:30;;;;;;;20.35;7.18;;;;;;;3.68;90.40;99391.13;5054153;28;20036;-60
2021/12/08 06:27:56;;;;;;;19.23;7.07;;;;;;;3.68;90.95;99402.06;5054830;28;20025;-60
2021/12/08 06:30:26;;;;;;;20.40;7.30;;;;;;;3.61;90.40;99387.94;5054778;28;20029;-60
2021/12/08 06:32:52;;;;;;;20.08;6.68;;;;;;;3.67;90.50;99405.88;5054319;28;20031;-59
2021/12/08 06:35:31;;;;;;;17.92;6.15;;;;;;;3.67;90.80;99408.63;5054513;28;20021;-59
2021/12/08 06:37:57;;;;;;;18.65;6.22;;;;;;;3.68;90.32;99410.25;5054866;28;20044;-60
2021/12/08 06:40:36;;;;;;;16.98;7.00;;;;;;;3.69;90.01;99409.16;5054563;28;20029;-60
2021/12/08 06:43:05;;;;;;;15.27;6.55;;;;;;;3.69;90.16;99400.13;5054507;28;20170;-59
2021/12/08 06:45:36;;;;;;;21.27;6.20;;;;;;;3.77;89.43;99418.63;5054518;28;20021;-60
2021/12/08 06:48:08;;;;;;;15.95;6.38;;;;;;;3.78;89.62;99420.22;5054397;28;20048;-60
2021/12/08 06:50:45;;;;;;;15.50;5.63;;;;;;;3.81;89.10;99419.66;5054420;28;20108;-59
2021/12/08 06:53:10;;;;;;;17.90;6.25;;;;;;;3.80;88.71;99403.53;5054025;28;20033;-60
2021/12/08 06:55:42;;;;;;;17.08;6.20;;;;;;;3.78;88.74;99411.22;5054103;28;20032;-60
2021/12/08 06:58:14;;;;;;;19.25;6.20;;;;;;;3.74;88.58;99400.06;5053723;28;20488;-60
2021/12/08 07:01:10;;;;;;;15.05;5.90;;;;;;;3.69;88.57;99408.31;5054557;28;20037;-60
2021/12/08 07:04:06;;;;;;;19.42;6.68;;;;;;;3.59;88.54;99410.09;5053976;28;20065;-60
2021/12/08 07:06:59;;;;;;;16.75;6.32;;;;;;;3.48;88.24;99397.69;5053561;28;20025;-60
2021/12/08 07:09:26;;;;;;;16.98;6.65;;;;;;;3.48;89.09;99410.53;5053398;28;20480;-59
2021/12/08 07:11:55;;;;;;;16.73;6.22;;;;;;;3.35;88.72;99399.22;5053948;28;20476;-61
2021/12/08 07:14:22;;;;;;;15.13;6.40;;;;;;;3.37;88.75;99412.59;5054006;28;20052;-61
2021/12/08 07:16:54;;;;;;;14.95;5.93;;;;;;;3.24;89.23;99419.59;5053807;28;20171;-60
2021/12/08 07:19:32;;;;;;;17.15;6.20;;;;;;;3.23;89.72;99434.38;5053838;28;20036;-60
2021/12/08 07:22:00;;;;;;;16.50;5.90;;;;;;;3.23;89.38;99451.56;5053933;28;20104;-61
2021/12/08 07:24:29;;;;;;;18.58;7.10;;;;;;;3.12;89.46;99441.84;5052222;28;20451;-61
2021/12/08 07:26:59;;;;;;;16.63;6.53;;;;;;;3.09;90.41;99439.72;5053588;28;20094;-60
2021/12/08 07:29:28;;;;;;;21.50;7.00;;;;;;;3.04;90.01;99434.28;5052812;28;20040;-60
2021/12/08 07:32:00;;;;;;;18.90;6.50;;;;;;;3.04;89.91;99453.41;5053892;28;20024;-59
2021/12/08 07:34:27;;;;;;;19.08;6.03;;;;;;;3.00;90.21;99455.13;5052961;28;20092;-59
2021/12/08 07:36:58;;;;;;;15.68;6.38;;;;;;;3.01;90.10;99457.56;5053355;28;20067;-59
2021/12/08 07:39:28;;;;;;;19.15;6.18;;;;;;;2.94;90.20;99463.34;5053765;28;20103;-61
2021/12/08 07:42:01;;;;;;;17.58;6.60;;;;;;;2.95;90.20;99473.19;5053389;28;20071;-60
2021/12/08 07:44:27;;;;;;;18.00;6.30;;;;;;;3.00;89.74;99474.25;5053266;28;20035;-60
2021/12/08 07:46:59;;;;;;;17.65;6.10;;;;;;;2.95;89.57;99478.66;5053449;28;20051;-60
2021/12/08 07:49:29;;;;;;;18.77;6.70;;;;;;;3.01;90.02;99473.16;5053405;28;20079;-59
2021/12/08 07:52:01;;;;;;;18.48;6.40;;;;;;;2.96;89.55;99474.00;5053432;28;20041;-60
2021/12/08 07:54:28;;;;;;;16.15;5.90;;;;;;;3.04;89.17;99481.56;5053486;28;20386;-60
2021/12/08 07:56:57;;;;;;;16.23;6.45;;;;;;;3.09;89.76;99480.72;5053042;28;20028;-61
2021/12/08 07:59:23;;;;;;;14.40;6.32;;;;;;;3.16;88.94;99478.44;5052042;28;20074;-60
2021/12/08 08:01:53;;;;;;;14.73;5.70;;;;;;;3.29;89.26;99485.13;5053217;28;20033;-60
2021/12/08 08:04:22;;;;;;;18.98;6.75;;;;;;;3.17;88.67;99463.66;5053521;28;20431;-60
2021/12/08 08:06:51;;;;;;;17.17;5.93;;;;;;;3.30;88.81;99475.81;5053074;28;20365;-61
2021/12/08 08:09:21;;;;;;;17.02;5.93;;;;;;;3.31;88.94;99482.13;5053008;28;20029;-60
2021/12/08 08:11:55;;;;;;;16.33;6.10;;;;;;;3.35;88.06;99480.41;5053214;28;20029;-60
2021/12/08 08:14:24;;;;;;;18.95;5.97;;;;;;;3.41;88.11;99493.75;5053218;28;20025;-61
2021/12/08 08:16:54;;;;;;;19.20;6.13;;;;;;;3.41;87.94;99487.44;5053030;28;20087;-61
2021/12/08 08:19:26;;;;;;;14.40;5.82;;;;;;;3.46;87.77;99492.88;5052231;28;20025;-61
2021/12/08 08:21:53;;;;;;;15.93;5.40;;;;;;;3.43;87.53;99487.97;5052952;28;20028;-60
2021/12/08 08:24:20;;;;;;;16.92;6.05;;;;;;;3.51;86.94;99492.00;5051428;28;20079;-61
2021/12/08 08:26:49;;;;;;;14.95;5.60;;;;;;;3.55;87.51;99499.31;5051383;28;20028;-61
2021/12/08 08:29:15;;;;;;;16.65;5.93;;;;;;;3.55;86.17;99506.69;5053071;28;20028;-61
2021/12/08 08:31:48;;;;;;;20.98;5.70;;;;;;;3.59;85.96;99502.28;5052884;28;20457;-61
2021/12/08 08:34:14;;;;;;;16.25;6.10;;;;;;;3.65;84.99;99503.03;5052673;28;20053;-61
2021/12/08 08:36:43;;;;;;;16.25;5.43;;;;;;;3.69;84.83;99504.06;5052904;28;20020;-61
2021/12/08 08:39:13;;;;;;;18.35;5.47;;;;;;;3.58;84.79;99484.22;5053041;28;20036;-61
2021/12/08 08:41:45;;;;;;;15.10;5.53;;;;;;;3.61;85.90;99491.03;5052829;28;20128;-61
2021/12/08 08:44:23;;;;;;;14.27;5.47;;;;;;;3.70;84.94;99494.75;5052650;28;20037;-61
2021/12/08 08:46:49;;;;;;;16.88;5.82;;;;;;;3.71;85.52;99485.44;5052569;28;20040;-61
2021/12/08 08:49:21;;;;;;;13.38;5.45;;;;;;;3.78;84.68;99485.88;5052584;28;20029;-60
2021/12/08 08:51:59;;;;;;;19.88;6.10;;;;;;;3.78;84.59;99479.59;5053030;28;20025;-61
2021/12/08 08:54:27;;;;;;;13.63;5.53;;;;;;;3.80;83.99;99482.88;5053063;28;20040;-61
2021/12/08 08:57:01;;;;;;;15.57;6.60;;;;;;;3.71;83.38;99469.84;5052663;28;20028;-60
2021/12/08 08:59:42;;;;;;;;;;;;;;;3.82;84.06;99469.72;5053053;28;20033;-60
2021/12/08 09:02:10;;;;;;;14.80;6.10;;;;;;;3.68;82.96;99475.09;5052713;28;19908;-60
2021/12/08 09:04:40;;;;;;;15.32;6.10;;;;;;;3.64;83.80;99485.78;5052557;28;20043;-61
2021/12/08 09:07:13;;;;;;;19.33;6.18;;;;;;;3.55;84.22;99471.97;5052767;28;20043;-61
2021/12/08 09:09:42;;;;;;;15.68;5.72;;;;;;;3.61;83.75;99489.13;5052412;28;20017;-61
2021/12/08 09:12:16;;;;;;;16.27;5.93;;;;;;;3.60;84.38;99492.97;5052422;28;20476;-60
2021/12/08 09:14:52;;;;;;;15.50;5.97;;;;;;;3.57;84.21;99490.81;5052629;28;20059;-61
2021/12/08 09:17:25;;;;;;;15.30;5.50;;;;;;;3.59;84.22;99494.06;5052388;28;20078;-61
2021/12/08 09:20:00;;;;;;;16.13;5.72;;;;;;;3.63;83.94;99489.66;5052506;28;20045;-60
2021/12/08 09:22:43;;;;;;;15.43;5.40;;;;;;;3.65;83.74;99500.28;5052377;28;20392;-61
2021/12/08 09:25:14;;;;;;;13.05;5.78;;;;;;;3.64;84.32;99494.00;5052671;28;20072;-60
2021/12/08 09:27:53;;;;;;;15.75;5.97;;;;;;;3.73;83.72;99502.38;5052358;28;20426;-61
2021/12/08 09:30:24;;;;;;;18.35;6.18;;;;;;;3.73;83.41;99500.44;5052555;28;20437;-60
2021/12/08 09:33:00;;;;;;;14.75;5.65;;;;;;;3.82;82.98;99519.75;5055829;28;20384;-61
2021/12/08 09:35:42;;;;;;;14.35;5.70;;;;;;;3.81;83.02;99520.06;5055851;28;20503;-61
2021/12/08 09:38:15;;;;;;;13.60;5.40;;;;;;;3.83;82.32;99537.81;5055912;28;20059;-61
2021/12/08 09:40:43;;;;;;;11.80;5.57;;;;;;;3.82;83.22;99527.16;5055709;28;20037;-60
2021/12/08 09:43:16;;;;;;;18.08;5.72;;;;;;;3.91;82.97;99536.34;5055663;28;20047;-61
2021/12/08 09:45:55;;;;;;;15.13;5.72;;;;;;;4.02;82.46;99520.59;5055764;28;20021;-60
2021/12/08 09:48:26;;;;;;;14.27;5.50;;;;;;;4.18;81.98;99527.47;5055806;28;20469;-60
2021/12/08 09:50:54;;;;;;;12.60;5.60;;;;;;;4.26;81.63;99523.25;5055825;28;20025;-60
2021/12/08 09:53:19;;;;;;;14.98;5.55;;;;;;;4.31;81.58;99530.59;5055501;28;20060;-60
2021/12/08 09:55:44;;;;;;;17.17;5.68;;;;;;;4.42;80.53;99523.84;5055472;28;20118;-61
2021/12/08 09:58:10;;;;;;;15.45;5.80;;;;;;;4.44;81.36;99515.34;5055823;28;20108;-61
2021/12/08 10:00:41;;;;;;;11.15;5.30;;;;;;;4.41;80.72;99514.00;5055421;28;20032;-60
2021/12/08 10:03:08;;;;;;;15.48;5.60;;;;;;;4.39;80.78;99512.69;5055366;28;20026;-61
2021/12/08 10:05:36;;;;;;;16.38;5.55;;;;;;;4.36;80.63;99503.94;5055351;28;20021;-60
2021/12/08 10:08:04;;;;;;;20.63;5.47;;;;;;;4.23;80.78;99488.25;5055198;28;20086;-63
2021/12/08 10:10:30;;;;;;;14.55;5.00;;;;;;;4.34;81.00;99500.69;5055096;28;20029;-60
2021/12/08 10:12:56;;;;;;;16.65;5.35;;;;;;;4.34;81.08;99502.63;5055105;28;20109;-60
2021/12/08 10:15:22;;;;;;;12.98;5.55;;;;;;;4.40;81.29;99506.91;5055176;28;20468;-60
2021/12/08 10:17:49;;;;;;;13.32;5.90;;;;;;;4.46;81.07;99504.91;5055168;28;20036;-60
2021/12/08 10:20:21;;;;;;;16.20;5.95;;;;;;;4.46;81.11;99491.22;5055234;28;20029;-60
2021/12/08 10:23:06;;;;;;;14.20;5.40;;;;;;;4.45;81.27;99492.31;5055004;28;20082;-59
2021/12/08 10:25:36;;;;;;;13.48;5.80;;;;;;;4.47;81.34;99490.91;5054851;28;20064;-60
2021/12/08 10:28:15;;;;;;;12.77;5.70;;;;;;;4.48;81.21;99472.56;5054995;28;20181;-60
2021/12/08 10:30:47;;;;;;;18.20;6.10;;;;;;;4.51;81.85;99480.16;5054814;28;20020;-59
2021/12/08 10:36:35;;;;;;;13.20;5.40;;;;;;;4.65;79.79;99471.97;5055161;28;20033;-61
2021/12/08 10:39:07;;;;;;;12.38;5.53;;;;;;;4.66;79.13;99463.50;5054820;28;20031;-60
2021/12/08 10:41:46;;;;;;;13.63;5.90;;;;;;;4.60;80.02;99458.38;5053814;28;20059;-61
2021/12/08 10:44:11;;;;;;;13.10;5.38;;;;;;;4.62;79.54;99467.13;5054496;28;20039;-61
2021/12/08 10:46:39;;;;;;;14.88;5.90;;;;;;;4.62;80.11;99467.13;5054739;28;20025;-60
2021/12/08 10:54:22;;;;;;;10.48;5.60;;;;;;;4.60;79.53;99470.16;5054640;28;20036;-61
2021/12/08 10:54:49;;;;;;;14.93;5.30;;;;;;;4.64;79.02;99470.34;5054617;28;20094;-61
2021/12/08 10:57:24;;;;;;;11.27;5.40;;;;;;;4.60;80.12;99475.63;5054715;28;20028;-60
2021/12/08 11:00:13;;;;;;;13.95;5.53;;;;;;;4.59;80.32;99486.88;5054194;28;20555;-61
2021/12/08 11:02:53;;;;;;;10.70;5.65;;;;;;;4.53;80.45;99478.75;5054390;28;20033;-61
2021/12/08 11:05:25;;;;;;;13.45;6.10;;;;;;;4.52;80.45;99479.06;5054068;28;20032;-60
2021/12/08 11:08:18;;;;;;;14.48;5.55;;;;;;;4.51;80.43;99493.84;5054165;28;20028;-60
2021/12/08 11:10:58;;;;;;;11.23;5.60;;;;;;;4.49;80.92;99496.06;5054118;28;20017;-60
2021/12/08 11:13:31;;;;;;;13.82;5.65;;;;;;;4.44;80.95;99487.94;5054407;28;20076;-60
2021/12/08 11:16:04;;;;;;;15.65;5.82;;;;;;;4.47;80.98;99484.63;5054122;28;20029;-60
2021/12/08 11:18:30;;;;;;;13.13;5.93;;;;;;;4.56;80.77;99518.44;5053989;28;20037;-61
2021/12/08 11:21:03;;;;;;;15.02;6.00;;;;;;;4.57;81.47;99519.25;5052343;28;20484;-61
2021/12/08 11:23:42;;;;;;;14.48;5.82;;;;;;;4.63;81.37;99524.34;5054082;28;20090;-59
2021/12/08 11:26:27;;;;;;;15.55;5.50;;;;;;;4.76;81.66;99530.97;5054345;28;20032;-60
2021/12/08 11:29:03;;;;;;;14.90;5.78;;;;;;;4.98;80.17;99535.81;5054169;28;20024;-61
2021/12/08 11:31:50;;;;;;;13.38;5.85;;;;;;;5.08;79.97;99529.34;5052964;28;20039;-61
2021/12/08 11:34:25;;;;;;;18.77;5.90;;;;;;;5.20;79.89;99536.25;5054191;28;20044;-61
2021/12/08 11:36:55;;;;;;;16.17;5.85;;;;;;;5.21;79.38;99524.16;5054082;28;20017;-58
2021/12/08 11:39:24;;;;;;;16.17;6.43;;;;;;;5.35;78.62;99543.38;5053564;28;20017;-60
2021/12/08 11:41:52;;;;;;;12.95;5.30;;;;;;;5.31;78.92;99544.00;5053636;28;20049;-61
2021/12/08 11:44:25;;;;;;;14.98;5.65;;;;;;;5.36;78.95;99550.50;5053428;28;20029;-61
2021/12/08 11:46:54;;;;;;;10.27;5.80;;;;;;;5.33;78.39;99551.91;5052899;28;20021;-57
2021/12/08 11:49:20;;;;;;;14.95;5.80;;;;;;;5.31;77.66;99563.19;5052106;28;20060;-59
2021/12/08 11:51:46;;;;;;;13.73;6.57;;;;;;;5.30;78.73;99564.31;5053148;28;20025;-60
2021/12/08 11:54:28;;;;;;;15.50;6.07;;;;;;;5.29;79.25;99559.94;5053472;28;20388;-61
2021/12/08 11:57:32;;;;;;;15.73;6.50;;;;;;;5.30;79.24;99571.72;5053501;28;20275;-60
2021/12/08 12:00:04;;;;;;;14.32;6.38;;;;;;;5.29;78.81;99564.63;5053172;28;20455;-59
2021/12/08 12:02:33;;;;;;;16.33;6.30;;;;;;;5.25;79.47;99561.66;5052762;28;20365;-60
2021/12/08 12:05:00;;;;;;;15.27;6.40;;;;;;;5.28;79.51;99573.97;5053160;28;20098;-60
2021/12/08 12:07:25;;;;;;;15.43;6.18;;;;;;;5.28;79.78;99579.44;5052876;28;20044;-60
2021/12/08 12:09:51;;;;;;;13.25;6.07;;;;;;;5.32;79.69;99566.75;5052930;28;20025;-60
2021/12/08 12:12:17;;;;;;;17.45;6.53;;;;;;;5.38;80.24;99572.94;5053042;28;20107;-60
2021/12/08 12:14:43;;;;;;;14.45;6.10;;;;;;;5.37;79.97;99576.81;5052413;28;20017;-60
2021/12/08 12:17:08;;;;;;;13.13;6.00;;;;;;;5.36;79.91;99583.41;5052939;28;20112;-61
2021/12/08 12:19:41;;;;;;;13.93;6.22;;;;;;;5.34;80.09;99602.91;5051248;28;20062;-59
2021/12/08 12:22:27;;;;;;;15.00;6.60;;;;;;;5.32;79.96;99599.66;5051075;28;20029;-60
2021/12/08 12:25:02;;;;;;;13.75;6.28;;;;;;;5.29;79.49;99597.53;5052329;28;20028;-60
2021/12/08 12:27:59;;;;;;;15.95;6.60;;;;;;;5.31;80.22;99614.47;5052974;28;20480;-60
2021/12/08 12:30:49;;;;;;;13.65;5.90;;;;;;;5.36;80.83;99608.09;5052941;28;20029;-60